Time;durP1;ratioP1;P1;durP2;ratioP2;P2;SDS_P1;SDS_P2;PMS_P1;PMS_P2;Temp;Humidity;BMP_temperature;BMP_pressure;BME280_temperature;BME280_humidity;BME280_pressure;Samples;Min_cycle;Max_cycle;Signal;HPM_P1;HPM_P2
2022/04/12 00:01:54;;;;;;;0.90;0.90;;;18.30;63.30;;;;;;5026950;28;44048;-72
2022/04/12 00:04:22;;;;;;;0.70;0.70;;;18.20;62.90;;;;;;5026863;28;43929;-72
2022/04/12 00:06:50;;;;;;;0.70;0.70;;;18.10;62.90;;;;;;5027347;28;43903;-71
2022/04/12 00:09:19;;;;;;;0.60;0.60;;;18.00;63.80;;;;;;5027005;28;44015;-73
2022/04/12 00:11:47;;;;;;;0.90;0.90;;;17.90;63.30;;;;;;5008597;28;43461;-71
2022/04/12 00:14:15;;;;;;;0.73;0.73;;;17.90;63.60;;;;;;5008376;28;43903;-71
2022/04/12 00:16:43;;;;;;;0.90;0.90;;;17.80;63.80;;;;;;5026566;28;43985;-71
2022/04/12 00:19:12;;;;;;;0.70;0.70;;;17.70;63.90;;;;;;5008670;28;44998;-72
2022/04/12 00:21:40;;;;;;;0.90;0.90;;;17.70;64.00;;;;;;5026469;28;44021;-71
2022/04/12 00:24:08;;;;;;;0.80;0.80;;;17.70;64.20;;;;;;5027067;28;44023;-73
2022/04/12 00:26:38;;;;;;;0.97;0.97;;;17.70;64.80;;;;;;5026901;28;43885;-72
2022/04/12 00:29:06;;;;;;;0.70;0.70;;;17.80;64.90;;;;;;5008065;28;46302;-72
2022/04/12 00:31:34;;;;;;;0.80;0.80;;;17.90;64.40;;;;;;5008116;28;45307;-71
2022/04/12 00:34:02;;;;;;;0.80;0.80;;;18.10;64.10;;;;;;5025747;28;43933;-71
2022/04/12 00:36:30;;;;;;;0.70;0.70;;;18.10;63.70;;;;;;5009334;28;44192;-72
2022/04/12 00:38:58;;;;;;;0.77;0.77;;;18.10;63.30;;;;;;5025841;28;44849;-71
2022/04/12 00:41:35;;;;;;;0.97;0.97;;;18.00;63.10;;;;;;5026191;28;43957;-71
2022/04/12 00:44:05;;;;;;;0.80;0.80;;;18.00;63.40;;;;;;5026169;28;43334;-72
2022/04/12 00:46:33;;;;;;;0.80;0.80;;;17.90;63.60;;;;;;5026579;28;43595;-71
2022/04/12 00:49:01;;;;;;;0.87;0.87;;;17.80;63.80;;;;;;5007501;28;46518;-73
2022/04/12 00:51:29;;;;;;;0.80;0.80;;;17.80;64.00;;;;;;5026240;28;43330;-71
2022/04/12 00:53:57;;;;;;;0.70;0.70;;;17.70;64.10;;;;;;5026382;28;44005;-72
2022/04/12 00:56:25;;;;;;;0.70;0.70;;;17.70;64.30;;;;;;5026968;28;43993;-72
2022/04/12 00:58:53;;;;;;;0.70;0.70;;;17.60;64.20;;;;;;5025605;28;43929;-74
2022/04/12 01:01:22;;;;;;;0.87;0.87;;;17.60;64.60;;;;;;5026231;28;44029;-71
2022/04/12 01:03:50;;;;;;;0.70;0.70;;;17.70;65.00;;;;;;5025914;28;44045;-71
2022/04/12 01:06:18;;;;;;;0.90;0.90;;;17.80;64.80;;;;;;5026955;28;43976;-71
2022/04/12 01:08:46;;;;;;;0.80;0.80;;;17.90;64.50;;;;;;5025821;28;44809;-70
2022/04/12 01:11:14;;;;;;;0.73;0.73;;;17.90;63.90;;;;;;5025702;28;43998;-70
2022/04/12 01:13:42;;;;;;;0.90;0.90;;;17.90;63.80;;;;;;5025668;28;44006;-70
2022/04/12 01:16:10;;;;;;;1.00;1.00;;;17.80;63.80;;;;;;5014884;28;44020;-71
2022/04/12 01:18:40;;;;;;;0.90;0.90;;;17.80;64.00;;;;;;5025700;28;44683;-72
2022/04/12 01:21:08;;;;;;;0.73;0.73;;;17.70;64.10;;;;;;5025922;28;43915;-71
2022/04/12 01:23:44;;;;;;;0.90;0.90;;;17.70;64.30;;;;;;5026259;28;44132;-71
2022/04/12 01:26:14;;;;;;;0.80;0.80;;;17.60;64.40;;;;;;5024242;28;44362;-70
2022/04/12 01:28:44;;;;;;;0.80;0.80;;;17.60;64.50;;;;;;5025612;28;44069;-70
2022/04/12 01:31:12;;;;;;;1.10;1.10;;;17.50;64.60;;;;;;5025662;28;43988;-70
2022/04/12 01:33:41;;;;;;;0.80;0.80;;;17.50;64.60;;;;;;5025469;28;43916;-70
2022/04/12 01:36:09;;;;;;;0.80;0.80;;;17.50;64.70;;;;;;5026529;28;43758;-71
2022/04/12 01:38:37;;;;;;;0.97;0.97;;;17.50;65.00;;;;;;5025548;28;44092;-70
2022/04/12 01:41:05;;;;;;;0.80;0.80;;;17.60;65.20;;;;;;5026842;28;44989;-72
2022/04/12 01:43:34;;;;;;;0.90;0.90;;;17.70;64.90;;;;;;5029307;28;44036;-70
2022/04/12 01:46:02;;;;;;;0.90;0.90;;;17.90;64.50;;;;;;5029087;28;43671;-70
2022/04/12 01:48:30;;;;;;;1.00;1.00;;;18.10;64.00;;;;;;5029163;28;43999;-71
2022/04/12 01:50:58;;;;;;;0.77;0.77;;;18.20;63.40;;;;;;5028655;28;43935;-71
2022/04/12 01:53:26;;;;;;;1.07;1.07;;;18.20;63.20;;;;;;5029015;28;43866;-70
2022/04/12 01:55:54;;;;;;;0.90;0.90;;;18.10;62.90;;;;;;5029138;28;44001;-71
2022/04/12 01:58:22;;;;;;;0.73;0.73;;;18.00;63.10;;;;;;5027017;28;46789;-71
2022/04/12 02:00:51;;;;;;;0.80;0.80;;;17.90;63.30;;;;;;5028256;28;43916;-70
2022/04/12 02:03:20;;;;;;;1.00;1.00;;;17.80;63.60;;;;;;5028735;28;43955;-71
2022/04/12 02:05:48;;;;;;;0.90;0.90;;;17.80;63.90;;;;;;5029002;28;43750;-71
2022/04/12 02:08:16;;;;;;;0.90;0.90;;;17.70;64.00;;;;;;5026886;28;45637;-70
2022/04/12 02:10:44;;;;;;;0.80;0.80;;;17.70;64.20;;;;;;5028294;28;43956;-70
2022/04/12 02:13:12;;;;;;;0.80;0.80;;;17.60;64.30;;;;;;5027006;28;43826;-71
2022/04/12 02:15:40;;;;;;;0.80;0.80;;;17.60;64.80;;;;;;5026697;28;43993;-70
2022/04/12 02:18:09;;;;;;;0.80;0.80;;;17.60;65.00;;;;;;5028254;28;44059;-71
2022/04/12 02:20:37;;;;;;;0.90;0.90;;;17.80;64.70;;;;;;5026869;28;45076;-72
2022/04/12 02:23:05;;;;;;;0.90;0.90;;;17.90;64.30;;;;;;5026792;28;43998;-72
2022/04/12 02:25:33;;;;;;;0.90;0.90;;;17.90;63.80;;;;;;5027318;28;43936;-71
2022/04/12 02:28:01;;;;;;;1.00;1.00;;;17.80;63.60;;;;;;5027656;28;44055;-71
2022/04/12 02:30:29;;;;;;;0.90;0.90;;;17.80;63.80;;;;;;5028584;28;44001;-71
2022/04/12 02:32:58;;;;;;;0.80;0.80;;;17.70;64.00;;;;;;5026143;28;43990;-71
2022/04/12 02:35:29;;;;;;;1.03;1.03;;;17.70;64.20;;;;;;5026969;28;44006;-70
2022/04/12 02:37:56;;;;;;;1.00;1.00;;;17.60;64.30;;;;;;5021021;28;43695;-71
2022/04/12 02:40:24;;;;;;;0.90;0.90;;;17.60;64.50;;;;;;5021598;28;44027;-71
2022/04/12 02:42:52;;;;;;;1.10;1.10;;;17.50;64.50;;;;;;5021356;28;43925;-71
2022/04/12 02:45:20;;;;;;;0.90;0.90;;;17.50;64.60;;;;;;5020782;28;44137;-72
2022/04/12 02:47:48;;;;;;;1.00;1.00;;;17.50;64.70;;;;;;5025652;28;45064;-71
2022/04/12 02:50:16;;;;;;;0.93;0.93;;;17.50;64.80;;;;;;5021354;28;44147;-70
2022/04/12 02:52:45;;;;;;;0.90;0.90;;;17.50;65.10;;;;;;5026118;28;44048;-70
2022/04/12 02:55:13;;;;;;;0.80;0.80;;;17.50;65.10;;;;;;5022428;28;44006;-71
2022/04/12 02:57:41;;;;;;;0.90;0.90;;;17.70;64.90;;;;;;5021572;28;43933;-71
2022/04/12 03:00:10;;;;;;;0.70;0.70;;;17.90;64.50;;;;;;5022068;28;43890;-70
2022/04/12 03:02:38;;;;;;;0.80;0.80;;;18.10;63.80;;;;;;5021838;28;44025;-71
2022/04/12 03:05:07;;;;;;;0.90;0.90;;;18.20;63.40;;;;;;5021692;28;44079;-71
2022/04/12 03:07:35;;;;;;;0.93;0.93;;;18.20;63.20;;;;;;5021994;28;43901;-71
2022/04/12 03:10:05;;;;;;;0.90;0.90;;;18.10;63.00;;;;;;5025742;28;44858;-71
2022/04/12 03:12:33;;;;;;;0.80;0.80;;;18.00;63.20;;;;;;5027678;28;44280;-72
2022/04/12 03:15:02;;;;;;;0.90;0.90;;;17.90;63.50;;;;;;5026913;28;43462;-71
2022/04/12 03:17:30;;;;;;;1.00;1.00;;;17.80;63.70;;;;;;5027153;28;43996;-71
2022/04/12 03:19:58;;;;;;;0.90;0.90;;;17.70;63.90;;;;;;5027159;28;43961;-70
2022/04/12 03:22:26;;;;;;;0.90;0.90;;;17.60;64.10;;;;;;5027534;28;44372;-71
2022/04/12 03:24:55;;;;;;;0.83;0.83;;;17.60;64.20;;;;;;5027463;28;43393;-71
2022/04/12 03:27:24;;;;;;;0.90;0.90;;;17.60;64.40;;;;;;5027634;28;43929;-71
2022/04/12 03:29:52;;;;;;;0.90;0.90;;;17.50;64.70;;;;;;5009040;28;45202;-71
2022/04/12 03:32:20;;;;;;;0.90;0.90;;;17.60;65.10;;;;;;5027120;28;43409;-71
2022/04/12 03:34:50;;;;;;;1.00;1.00;;;17.70;64.80;;;;;;5027365;28;43953;-71
2022/04/12 03:37:17;;;;;;;1.00;1.00;;;17.80;64.40;;;;;;5027351;28;43894;-71
2022/04/12 03:39:47;;;;;;;0.90;0.90;;;17.80;63.90;;;;;;5026462;28;44169;-71
2022/04/12 03:42:18;;;;;;;0.87;0.87;;;17.80;63.80;;;;;;5027372;28;43939;-70
2022/04/12 03:44:47;;;;;;;0.80;0.80;;;17.70;63.70;;;;;;5027079;28;44010;-71
2022/04/12 03:47:15;;;;;;;1.00;1.00;;;17.70;64.00;;;;;;5009005;28;46154;-70
2022/04/12 03:49:43;;;;;;;0.87;0.87;;;17.60;64.20;;;;;;5027103;28;44066;-71
2022/04/12 03:52:11;;;;;;;0.80;0.80;;;17.60;64.40;;;;;;5009020;28;44082;-71
2022/04/12 03:54:39;;;;;;;1.03;1.03;;;17.50;64.40;;;;;;5027830;28;43961;-71
2022/04/12 03:57:07;;;;;;;1.00;1.00;;;17.50;64.60;;;;;;5026695;28;43970;-71
2022/04/12 03:59:35;;;;;;;0.90;0.90;;;17.50;64.70;;;;;;5026805;28;44067;-71
2022/04/12 04:02:05;;;;;;;0.90;0.90;;;17.40;64.70;;;;;;5008042;28;43986;-71
2022/04/12 04:04:33;;;;;;;0.90;0.90;;;17.40;64.70;;;;;;5027102;28;43383;-70
2022/04/12 04:07:04;;;;;;;0.80;0.80;;;17.40;64.90;;;;;;5007906;28;45191;-71
2022/04/12 04:09:32;;;;;;;0.90;0.90;;;17.40;65.10;;;;;;5008958;28;45242;-71
2022/04/12 04:12:03;;;;;;;0.90;0.90;;;17.60;65.00;;;;;;5008145;28;43975;-71
2022/04/12 04:14:33;;;;;;;1.00;1.00;;;17.80;64.50;;;;;;5027310;28;44324;-71
2022/04/12 04:17:01;;;;;;;1.00;1.00;;;18.00;63.90;;;;;;5025422;28;45066;-71
2022/04/12 04:19:31;;;;;;;0.90;0.90;;;18.20;63.40;;;;;;5026769;28;43894;-71
2022/04/12 04:21:58;;;;;;;0.90;0.90;;;18.20;63.10;;;;;;5007880;28;44033;-72
2022/04/12 04:24:26;;;;;;;1.00;1.00;;;18.10;63.10;;;;;;5009258;28;44074;-71
2022/04/12 04:26:55;;;;;;;0.90;0.90;;;18.00;63.00;;;;;;5026410;28;44963;-70
2022/04/12 04:29:24;;;;;;;1.10;1.10;;;17.90;63.30;;;;;;5008503;28;44681;-71
2022/04/12 04:31:52;;;;;;;0.93;0.93;;;17.80;63.60;;;;;;5026003;28;44065;-71
2022/04/12 04:34:20;;;;;;;1.00;1.00;;;17.70;63.80;;;;;;5026615;28;43898;-71
2022/04/12 04:36:49;;;;;;;0.80;0.80;;;17.60;64.00;;;;;;5026194;28;44020;-72
2022/04/12 04:39:17;;;;;;;0.90;0.90;;;17.60;64.20;;;;;;5008385;28;44441;-70
2022/04/12 04:41:45;;;;;;;0.90;0.90;;;17.50;64.30;;;;;;5008567;28;43954;-71
2022/04/12 04:44:13;;;;;;;1.03;1.03;;;17.50;64.50;;;;;;5008851;28;43977;-71
2022/04/12 04:46:41;;;;;;;0.80;0.80;;;17.50;64.90;;;;;;5026109;28;44079;-72
2022/04/12 04:49:10;;;;;;;0.80;0.80;;;17.60;64.80;;;;;;5025402;28;44109;-70
2022/04/12 04:51:41;;;;;;;1.00;1.00;;;17.80;64.40;;;;;;5009102;28;44084;-71
2022/04/12 04:54:10;;;;;;;0.73;0.73;;;17.80;64.70;;;;;;5009033;28;43893;-72
2022/04/12 04:56:38;;;;;;;0.90;0.90;;;17.80;63.90;;;;;;5026532;28;43977;-70
2022/04/12 04:59:06;;;;;;;0.83;0.83;;;17.70;63.70;;;;;;5026532;28;44110;-71
2022/04/12 05:01:34;;;;;;;1.00;1.00;;;17.70;64.00;;;;;;5008740;28;43953;-71
2022/04/12 05:04:02;;;;;;;1.10;1.10;;;17.60;64.10;;;;;;5026202;28;44008;-71
2022/04/12 05:06:30;;;;;;;1.07;1.07;;;17.60;64.30;;;;;;5007870;28;45600;-71
2022/04/12 05:08:58;;;;;;;1.03;0.90;;;17.50;64.40;;;;;;5008129;28;45889;-71
2022/04/12 05:11:27;;;;;;;0.93;0.93;;;17.50;64.50;;;;;;5008317;28;43979;-71
2022/04/12 05:13:55;;;;;;;0.90;0.90;;;17.50;64.70;;;;;;5025402;28;44048;-71
2022/04/12 05:16:23;;;;;;;1.10;1.10;;;17.50;64.80;;;;;;5025884;28;44777;-71
2022/04/12 05:18:52;;;;;;;0.97;0.97;;;17.40;64.70;;;;;;5026446;28;44025;-71
2022/04/12 05:21:20;;;;;;;1.10;1.10;;;17.40;64.90;;;;;;5025878;28;44023;-70
2022/04/12 05:23:48;;;;;;;1.07;1.07;;;17.50;65.20;;;;;;5026463;28;43960;-71
2022/04/12 05:26:16;;;;;;;0.90;0.90;;;17.60;64.80;;;;;;5026133;28;43726;-71
2022/04/12 05:28:47;;;;;;;1.00;1.00;;;17.80;64.30;;;;;;5026029;28;44008;-71
2022/04/12 05:31:14;;;;;;;1.10;1.10;;;18.10;63.80;;;;;;5007977;28;44049;-70
2022/04/12 05:33:43;;;;;;;1.00;1.00;;;18.20;63.20;;;;;;5026345;28;43357;-71
2022/04/12 05:36:11;;;;;;;1.30;1.30;;;18.20;62.90;;;;;;5008005;28;45737;-70
2022/04/12 05:38:39;;;;;;;0.80;0.80;;;18.20;62.80;;;;;;5008319;28;44868;-71
2022/04/12 05:41:07;;;;;;;1.00;1.00;;;18.10;62.90;;;;;;5008263;28;43976;-71
2022/04/12 05:43:35;;;;;;;1.10;1.10;;;18.00;63.00;;;;;;5026610;28;44140;-71
2022/04/12 05:46:05;;;;;;;1.10;1.10;;;17.90;63.20;;;;;;5025599;28;43942;-71
2022/04/12 05:48:33;;;;;;;1.10;1.10;;;17.90;63.40;;;;;;5007685;28;44508;-70
2022/04/12 05:51:01;;;;;;;1.10;1.10;;;17.80;63.60;;;;;;5008076;28;43940;-70
2022/04/12 05:53:29;;;;;;;1.10;1.10;;;17.80;63.70;;;;;;5007765;28;44009;-71
2022/04/12 05:55:57;;;;;;;0.90;0.90;;;17.80;63.80;;;;;;5025464;28;44035;-71
2022/04/12 05:58:25;;;;;;;1.10;1.10;;;17.70;64.00;;;;;;5025627;28;44302;-71
2022/04/12 06:00:53;;;;;;;1.07;1.07;;;17.80;64.30;;;;;;5025622;28;43950;-71
2022/04/12 06:03:23;;;;;;;1.10;1.10;;;17.90;64.00;;;;;;5025991;28;44048;-71
2022/04/12 06:05:51;;;;;;;1.00;1.00;;;18.10;63.60;;;;;;5000702;28;45580;-70
2022/04/12 06:08:19;;;;;;;1.20;1.10;;;18.10;63.30;;;;;;5019233;28;44117;-70
2022/04/12 06:10:47;;;;;;;1.03;1.03;;;18.10;63.10;;;;;;5025653;28;44095;-71
2022/04/12 06:13:15;;;;;;;1.10;1.10;;;18.10;63.20;;;;;;5018121;28;43575;-70
2022/04/12 06:15:43;;;;;;;1.40;0.97;;;18.00;63.10;;;;;;5018519;28;44819;-70
2022/04/12 06:18:11;;;;;;;0.93;0.93;;;18.00;63.30;;;;;;5019227;28;44235;-70
2022/04/12 06:20:41;;;;;;;1.00;1.00;;;17.90;63.40;;;;;;5019504;28;43962;-70
2022/04/12 06:23:08;;;;;;;1.07;1.07;;;17.90;63.50;;;;;;5020107;28;43375;-71
2022/04/12 06:25:36;;;;;;;1.00;1.00;;;17.80;63.60;;;;;;5026362;28;43991;-71
2022/04/12 06:28:07;;;;;;;1.10;1.10;;;17.80;63.80;;;;;;5028456;28;44133;-70
2022/04/12 06:30:35;;;;;;;1.00;1.00;;;17.80;63.80;;;;;;5028676;28;43968;-71
2022/04/12 06:33:03;;;;;;;1.10;1.10;;;17.70;63.80;;;;;;5028903;28;43769;-71
2022/04/12 06:35:31;;;;;;;1.00;1.00;;;17.70;64.20;;;;;;5010587;28;45630;-71
2022/04/12 06:38:02;;;;;;;1.00;1.00;;;17.80;64.30;;;;;;5010041;28;43939;-71
2022/04/12 06:40:30;;;;;;;1.00;1.00;;;17.90;64.00;;;;;;5010522;28;43484;-71
2022/04/12 06:42:58;;;;;;;0.90;0.90;;;18.10;63.50;;;;;;5028511;28;43540;-71
2022/04/12 06:45:26;;;;;;;0.90;0.90;;;18.30;63.00;;;;;;5028450;28;43947;-72
2022/04/12 06:47:55;;;;;;;1.03;1.03;;;18.40;62.60;;;;;;5028175;28;43891;-71
2022/04/12 06:50:23;;;;;;;1.10;1.10;;;18.40;62.50;;;;;;5028695;28;43944;-70
2022/04/12 06:52:51;;;;;;;1.00;1.00;;;18.30;62.40;;;;;;5010535;28;43510;-71
2022/04/12 06:55:21;;;;;;;1.10;1.10;;;18.20;62.60;;;;;;5010071;28;46212;-70
2022/04/12 06:57:49;;;;;;;1.10;1.10;;;18.10;62.80;;;;;;5009650;28;44931;-71
2022/04/12 07:00:17;;;;;;;1.00;1.00;;;18.00;63.00;;;;;;5028453;28;44327;-71
2022/04/12 07:02:46;;;;;;;1.00;1.00;;;17.90;63.20;;;;;;5028286;28;43309;-70
2022/04/12 07:05:14;;;;;;;1.00;1.00;;;17.90;63.50;;;;;;5028197;28;43961;-71
2022/04/12 07:07:42;;;;;;;1.17;1.17;;;17.80;63.60;;;;;;5027784;28;43933;-70
2022/04/12 07:10:11;;;;;;;1.03;1.03;;;17.80;63.80;;;;;;5010379;28;43396;-70
2022/04/12 07:12:40;;;;;;;1.00;1.00;;;17.70;64.00;;;;;;5011212;28;44011;-71
2022/04/12 07:15:09;;;;;;;1.10;1.10;;;17.70;64.30;;;;;;5027958;28;43930;-71
2022/04/12 07:17:37;;;;;;;1.03;1.03;;;17.90;64.10;;;;;;5028065;28;44091;-71
2022/04/12 07:20:05;;;;;;;1.07;1.03;;;18.00;63.70;;;;;;5028005;28;43941;-70
2022/04/12 07:22:33;;;;;;;1.07;1.07;;;18.10;63.50;;;;;;5028608;28;43537;-71
2022/04/12 07:25:01;;;;;;;1.00;1.00;;;18.00;63.30;;;;;;5027531;28;43969;-71
2022/04/12 07:27:33;;;;;;;1.00;1.00;;;18.00;63.20;;;;;;5027651;28;44011;-71
2022/04/12 07:30:03;;;;;;;1.00;1.00;;;17.90;63.30;;;;;;5027566;28;44139;-71
2022/04/12 07:32:31;;;;;;;1.30;1.30;;;17.90;63.50;;;;;;5028233;28;43333;-70
2022/04/12 07:34:59;;;;;;;1.20;1.20;;;17.80;63.70;;;;;;5027202;28;43601;-71
2022/04/12 07:37:27;;;;;;;0.90;0.90;;;17.80;63.80;;;;;;5026391;28;44122;-70
2022/04/12 07:39:56;;;;;;;1.17;1.17;;;17.80;63.90;;;;;;5027445;28;44140;-72
2022/04/12 07:42:24;;;;;;;1.00;1.00;;;17.70;63.90;;;;;;5010297;28;44060;-70
2022/04/12 07:44:52;;;;;;;1.03;1.03;;;17.70;64.00;;;;;;5027305;28;44386;-71
2022/04/12 07:47:21;;;;;;;1.10;1.10;;;17.70;64.00;;;;;;5009451;28;44734;-70
2022/04/12 07:49:49;;;;;;;1.17;1.17;;;17.70;64.30;;;;;;5009071;28;43361;-71
2022/04/12 07:52:17;;;;;;;1.20;1.20;;;17.80;64.50;;;;;;5027889;28;43838;-71
2022/04/12 07:54:45;;;;;;;1.20;1.20;;;17.90;64.00;;;;;;5027031;28;44827;-71
2022/04/12 07:57:13;;;;;;;1.20;1.20;;;18.10;63.60;;;;;;5027301;28;44352;-71
2022/04/12 07:59:41;;;;;;;1.10;1.10;;;18.30;63.00;;;;;;5027591;28;43950;-72
2022/04/12 08:02:09;;;;;;;1.20;1.20;;;18.40;62.50;;;;;;5028151;28;43997;-71
2022/04/12 08:04:41;;;;;;;1.10;1.10;;;18.40;62.40;;;;;;5027626;28;43830;-71
2022/04/12 08:07:09;;;;;;;1.17;1.17;;;18.40;62.40;;;;;;5027430;28;43988;-72
2022/04/12 08:09:37;;;;;;;1.10;1.10;;;18.30;62.50;;;;;;5027349;28;43853;-71
2022/04/12 08:12:05;;;;;;;1.13;1.13;;;18.20;62.70;;;;;;5027555;28;43951;-71
2022/04/12 08:14:33;;;;;;;1.20;1.20;;;18.10;63.00;;;;;;5026720;28;44004;-71
2022/04/12 08:17:01;;;;;;;1.10;1.10;;;18.00;63.20;;;;;;5026142;28;43521;-71
2022/04/12 08:19:29;;;;;;;1.10;1.10;;;17.90;63.40;;;;;;5026869;28;44044;-70
2022/04/12 08:22:00;;;;;;;1.20;1.20;;;17.90;63.60;;;;;;5027239;28;43991;-71
2022/04/12 08:24:28;;;;;;;1.20;1.20;;;17.80;63.70;;;;;;5026881;28;43906;-71
2022/04/12 08:26:58;;;;;;;1.00;1.00;;;17.80;64.10;;;;;;5026497;28;43991;-70
2022/04/12 08:29:26;;;;;;;1.10;1.10;;;17.90;64.30;;;;;;5027034;28;43446;-71
2022/04/12 08:31:54;;;;;;;1.10;1.10;;;18.00;63.80;;;;;;5027070;28;43351;-71
2022/04/12 08:34:22;;;;;;;1.00;1.00;;;18.20;63.50;;;;;;5008700;28;46245;-70
2022/04/12 08:36:50;;;;;;;1.10;1.10;;;18.20;63.20;;;;;;5026257;28;44248;-71
2022/04/12 08:39:19;;;;;;;1.10;1.10;;;18.10;63.00;;;;;;5026783;28;43987;-71
2022/04/12 08:41:47;;;;;;;0.90;0.90;;;18.10;63.10;;;;;;5026863;28;43934;-70
2022/04/12 08:44:16;;;;;;;1.00;1.00;;;18.00;63.30;;;;;;5026618;28;43993;-71
2022/04/12 08:46:45;;;;;;;1.20;1.20;;;17.90;63.40;;;;;;5008190;28;44408;-71
2022/04/12 08:49:13;;;;;;;1.27;1.27;;;17.90;63.70;;;;;;5026335;28;43488;-70
2022/04/12 08:51:41;;;;;;;1.03;1.03;;;17.80;63.80;;;;;;5009108;28;44040;-71
2022/04/12 08:54:10;;;;;;;1.00;1.00;;;17.80;63.90;;;;;;5009155;28;45980;-71
2022/04/12 08:56:40;;;;;;;1.10;1.10;;;17.80;64.00;;;;;;5026702;28;44037;-71
2022/04/12 08:59:07;;;;;;;1.10;1.10;;;17.70;64.00;;;;;;5008488;28;43431;-71
2022/04/12 09:01:39;;;;;;;1.00;1.00;;;17.70;64.10;;;;;;5008578;28;44138;-71
2022/04/12 09:04:08;;;;;;;1.10;1.10;;;17.70;64.60;;;;;;5026306;28;43921;-71
2022/04/12 09:06:36;;;;;;;1.20;1.20;;;17.80;64.60;;;;;;5026168;28;43973;-71
2022/04/12 09:09:11;;;;;;;1.07;1.07;;;18.00;64.10;;;;;;5025869;28;43944;-70
2022/04/12 09:11:42;;;;;;;1.27;1.27;;;18.20;63.50;;;;;;5026975;28;44057;-72
2022/04/12 09:14:13;;;;;;;1.03;1.03;;;18.40;62.90;;;;;;5026253;28;43995;-72
2022/04/12 09:16:43;;;;;;;1.10;1.10;;;18.50;62.70;;;;;;5025380;28;44050;-71
2022/04/12 09:19:11;;;;;;;0.90;0.90;;;18.50;62.50;;;;;;5008462;28;43942;-71
2022/04/12 09:21:45;;;;;;;0.93;0.93;;;18.40;62.50;;;;;;5026884;28;43909;-71
2022/04/12 09:24:19;;;;;;;1.10;1.10;;;18.30;62.60;;;;;;5026190;28;44044;-71
2022/04/12 09:26:55;;;;;;;1.20;1.20;;;18.20;62.90;;;;;;5007626;28;44924;-70
2022/04/12 09:29:26;;;;;;;1.00;1.00;;;18.10;63.20;;;;;;5026106;28;43897;-70
2022/04/12 09:31:56;;;;;;;1.10;1.10;;;18.00;63.30;;;;;;5008240;28;43588;-72
2022/04/12 09:34:25;;;;;;;1.10;1.10;;;17.90;63.50;;;;;;5026028;28;43987;-71
2022/04/12 09:37:25;;;;;;;0.90;0.90;;;17.90;64.40;;;;;;5025894;28;43478;-72
2022/04/12 09:40:04;;;;;;;0.97;0.97;;;17.90;63.90;;;;;;5025836;28;44057;-71
2022/04/12 09:42:55;;;;;;;0.90;0.90;;;17.80;64.20;;;;;;5026381;28;43996;-71
2022/04/12 09:45:23;;;;;;;1.03;1.03;;;18.00;64.10;;;;;;5002592;28;45787;-71
2022/04/12 09:47:59;;;;;;;0.80;0.80;;;18.10;63.70;;;;;;5025883;28;44075;-71
2022/04/12 09:50:47;;;;;;;1.10;1.10;;;18.20;63.40;;;;;;5026021;28;44010;-71
2022/04/12 09:53:15;;;;;;;1.10;1.10;;;18.10;63.20;;;;;;5026181;28;43944;-71
2022/04/12 09:55:44;;;;;;;0.90;0.90;;;18.10;63.30;;;;;;5025402;28;45076;-70
2022/04/12 09:58:14;;;;;;;1.00;1.00;;;18.00;63.50;;;;;;5025803;28;43433;-71
2022/04/12 10:00:42;;;;;;;1.13;0.97;;;17.90;63.60;;;;;;5026558;28;43455;-71
2022/04/12 10:03:12;;;;;;;1.20;1.20;;;17.90;63.80;;;;;;5029735;28;43970;-72
2022/04/12 10:05:40;;;;;;;1.10;1.10;;;17.80;64.00;;;;;;5029122;28;44874;-71
2022/04/12 10:08:11;;;;;;;0.93;0.93;;;17.80;64.10;;;;;;5028992;28;43976;-71
2022/04/12 10:10:42;;;;;;;1.07;1.07;;;17.80;64.30;;;;;;5029053;28;43432;-71
2022/04/12 10:13:11;;;;;;;1.07;1.07;;;17.80;64.40;;;;;;5022831;28;43894;-72
2022/04/12 10:15:40;;;;;;;0.93;0.93;;;17.70;64.40;;;;;;5028899;28;44013;-71
2022/04/12 10:18:08;;;;;;;1.00;1.00;;;17.80;64.60;;;;;;5022796;28;43881;-71
2022/04/12 10:20:36;;;;;;;1.00;1.00;;;17.90;64.50;;;;;;5028941;28;43708;-71
2022/04/12 10:23:04;;;;;;;1.13;1.13;;;18.10;64.00;;;;;;5029685;28;44037;-70
2022/04/12 10:25:32;;;;;;;1.00;1.00;;;18.30;63.50;;;;;;5028830;28;43982;-69
2022/04/12 10:28:00;;;;;;;0.90;0.90;;;18.40;62.90;;;;;;5028467;28;43960;-71
2022/04/12 10:30:29;;;;;;;1.03;1.03;;;18.50;62.50;;;;;;5029003;28;44015;-71
2022/04/12 10:33:02;;;;;;;0.70;0.70;;;18.50;63.10;;;;;;5029091;28;43818;-71
2022/04/12 10:35:31;;;;;;;1.00;1.00;;;18.40;62.50;;;;;;5010374;28;45713;-71
2022/04/12 10:37:59;;;;;;;0.90;0.90;;;18.30;62.80;;;;;;5028207;28;44017;-71
2022/04/12 10:40:44;;;;;;;1.10;1.10;;;18.20;63.10;;;;;;5028617;28;43878;-70
2022/04/12 10:43:12;;;;;;;0.97;0.97;;;18.10;63.40;;;;;;5011055;28;43566;-70
2022/04/12 10:45:45;;;;;;;0.97;0.97;;;18.00;63.60;;;;;;5028416;28;43728;-71
2022/04/12 10:48:20;;;;;;;1.10;1.10;;;18.00;63.90;;;;;;5010516;28;45771;-71
2022/04/12 10:50:48;;;;;;;1.00;1.00;;;17.90;63.90;;;;;;5028383;28;43407;-71
2022/04/12 10:53:16;;;;;;;1.00;1.00;;;17.90;64.10;;;;;;5010957;28;43961;-71
2022/04/12 10:55:44;;;;;;;1.00;1.00;;;17.90;64.30;;;;;;5028174;28;43748;-72
2022/04/12 10:58:13;;;;;;;0.90;0.90;;;18.00;64.20;;;;;;5010274;28;45834;-71
2022/04/12 11:00:42;;;;;;;1.17;1.17;;;18.10;63.60;;;;;;5010520;28;44012;-70
2022/04/12 11:03:11;;;;;;;1.00;1.00;;;18.20;63.20;;;;;;5028992;28;44223;-71
2022/04/12 11:05:56;;;;;;;0.93;0.93;;;18.20;63.20;;;;;;5028504;28;44902;-71
2022/04/12 11:08:47;;;;;;;1.00;1.00;;;18.10;63.20;;;;;;5025689;28;44007;-70
2022/04/12 11:11:27;;;;;;;0.90;0.90;;;18.00;63.30;;;;;;5010113;28;43446;-70
2022/04/12 11:13:56;;;;;;;1.10;1.10;;;18.00;63.70;;;;;;5027894;28;43830;-72
2022/04/12 11:16:27;;;;;;;1.00;1.00;;;17.90;63.70;;;;;;5026917;28;43902;-71
2022/04/12 11:18:56;;;;;;;0.93;0.93;;;17.90;63.90;;;;;;5003040;28;45429;-70
2022/04/12 11:21:26;;;;;;;1.10;1.10;;;17.80;63.90;;;;;;5022040;28;43372;-72
2022/04/12 11:23:58;;;;;;;0.80;0.80;;;17.80;64.00;;;;;;5028051;28;43893;-70
2022/04/12 11:26:37;;;;;;;1.10;1.10;;;17.80;64.10;;;;;;5027877;28;43999;-71
2022/04/12 11:29:08;;;;;;;0.90;0.90;;;17.80;64.20;;;;;;5027661;28;43768;-71
2022/04/12 11:31:40;;;;;;;0.90;0.90;;;17.80;64.30;;;;;;5027729;28;44107;-71
2022/04/12 11:34:08;;;;;;;1.10;1.10;;;17.90;64.10;;;;;;5028393;28;44299;-70
2022/04/12 11:36:39;;;;;;;0.80;0.80;;;18.10;63.80;;;;;;5027908;28;44476;-71
2022/04/12 11:39:07;;;;;;;1.10;1.10;;;18.20;63.20;;;;;;5027740;28;43883;-71
2022/04/12 11:41:35;;;;;;;1.10;1.10;;;18.40;62.70;;;;;;5010078;28;43920;-71
2022/04/12 11:44:03;;;;;;;1.00;1.00;;;18.50;62.40;;;;;;5009979;28;44259;-70
2022/04/12 11:46:31;;;;;;;0.90;0.90;;;18.40;62.30;;;;;;5009196;28;46049;-72
2022/04/12 11:49:07;;;;;;;0.93;0.93;;;18.40;62.50;;;;;;5026006;28;44719;-71
2022/04/12 11:51:42;;;;;;;1.10;1.10;;;18.20;62.60;;;;;;5027997;28;44090;-71
2022/04/12 11:54:24;;;;;;;0.90;0.90;;;18.20;62.90;;;;;;5028403;28;44166;-71
2022/04/12 11:57:10;;;;;;;1.13;1.13;;;18.10;63.20;;;;;;5008633;28;46568;-70
2022/04/12 11:59:39;;;;;;;0.97;0.97;;;18.00;63.40;;;;;;5027619;28;43985;-71
2022/04/12 12:02:08;;;;;;;1.10;1.10;;;18.00;63.70;;;;;;5028118;28;44154;-70
2022/04/12 12:04:36;;;;;;;0.97;0.97;;;17.90;63.70;;;;;;5027952;28;43992;-71
2022/04/12 12:07:07;;;;;;;1.20;1.07;;;17.90;63.80;;;;;;5026690;28;45007;-70
2022/04/12 12:09:50;;;;;;;0.90;0.90;;;17.90;64.00;;;;;;5027413;28;44017;-70
2022/04/12 12:12:18;;;;;;;1.20;1.10;;;18.00;63.90;;;;;;5027437;28;43923;-71
2022/04/12 12:14:48;;;;;;;1.00;1.00;;;18.10;63.30;;;;;;5020925;28;43963;-71
2022/04/12 12:17:20;;;;;;;1.00;1.00;;;18.20;63.10;;;;;;5020345;28;44029;-70
2022/04/12 12:19:48;;;;;;;1.20;1.20;;;18.20;62.90;;;;;;5020983;28;43984;-70
2022/04/12 12:22:18;;;;;;;0.90;0.90;;;18.10;63.00;;;;;;5027077;28;43925;-70
2022/04/12 12:24:52;;;;;;;0.83;0.83;;;18.10;63.20;;;;;;5027152;28;43908;-71
2022/04/12 12:27:28;;;;;;;1.10;1.10;;;18.00;63.30;;;;;;5026968;28;43839;-71
2022/04/12 12:30:09;;;;;;;0.90;0.90;;;17.90;63.50;;;;;;5026607;28;43415;-71
2022/04/12 12:32:38;;;;;;;0.90;0.90;;;17.90;63.60;;;;;;5027107;28;43988;-71
2022/04/12 12:35:06;;;;;;;0.87;0.87;;;17.80;63.80;;;;;;5009122;28;43556;-71
2022/04/12 12:37:36;;;;;;;0.97;0.97;;;17.80;63.80;;;;;;5026448;28;44207;-70
2022/04/12 12:40:17;;;;;;;0.90;0.90;;;17.80;64.00;;;;;;5008590;28;45046;-71
2022/04/12 12:42:45;;;;;;;0.87;0.87;;;17.80;64.00;;;;;;5020578;28;43909;-71
2022/04/12 12:45:16;;;;;;;1.00;1.00;;;17.80;64.90;;;;;;5027024;28;43878;-71
2022/04/12 12:47:46;;;;;;;1.30;1.20;;;17.80;64.10;;;;;;5026253;28;44839;-72
2022/04/12 12:50:15;;;;;;;0.90;0.90;;;18.00;63.80;;;;;;5026451;28;43953;-70
2022/04/12 12:52:44;;;;;;;1.00;1.00;;;18.20;63.20;;;;;;5026395;28;44081;-70
2022/04/12 12:55:16;;;;;;;0.90;0.90;;;18.40;62.80;;;;;;5027032;28;43914;-71
2022/04/12 12:57:45;;;;;;;1.00;1.00;;;18.50;62.50;;;;;;5025799;28;43965;-70
2022/04/12 13:00:14;;;;;;;0.90;0.90;;;18.50;62.30;;;;;;5026346;28;43958;-71